Ainsworth, IA

4:46 PM CDT on April 25, 2015 (GMT -0500)
Washington Municipal | | Change Station
CLOSE
Current Station
Airport
Location: Washington,
Elevation: 755 ft
Nearby Weather Stations

Elev 755 ft 41.28 °N, 91.67 °W | Updated 11 minutes ago

Overcast
Overcast
48 °F
Feels Like 48 °F
N
14
Wind Variable Wind from NE

Today
High -- | Low -- °F
--% Chance of Precip.
Yesterday
High -- | Low -- °F
Precip. -- in
6:12 AM 7:56 PM
Waxing Crescent, 49% visible
Pressure 29.71 in
Visibility 7.0 miles
Clouds Overcast 1300 ft
Dew Point 48 °F
Humidity 100%
Rainfall 0.53 in
Snow Depth Not available.
UV 1 out of 12
Pollen 1.00 out of 12
Air Quality Not available.
Flu Activity Local Activity
METAR KAWG 252135Z AUTO 04012KT 7SM OVC013 09/09 A2971 RMK AO2

More Conditions Fewer Conditions

Pressure 29.71 in
Visibility 7.0 miles
Clouds Overcast 1300 ft
Dew Point 48 °F
Humidity 100%
Rainfall 0.53 in
Snow Depth Not available.
UV 1 out of 12
Pollen 1.00 out of 12
Air Quality Not available.
Flu Activity Local Activity
METAR KAWG 252135Z AUTO 04012KT 7SM OVC013 09/09 A2971 RMK AO2

More Conditions Fewer Conditions

10-Day Weather Forecast

Almanac

Astronomy

Apr. 25, 2015 Rise Set
Actual Time
Civil Twilight
Nautical Twilight
Astronomical Twilight
Moon
Length of Visible Light
Length of Day
Tomorrow will be .
, % of the Moon is Illuminated

Today's Extremes

State Highs State Lows

Community

WunderPhotos

Upload Photos

1,816,820 photos uploaded!

WunderBlogs® & News

Nearby

Air Quality

  Air Quality AQ Index Pollutant
Not available.

Snow Depth

Station Depth Elevation

Earthquake Activity

City Distance Mag. Time & Date
Minimum magnitude displayed is 2.5.

Coastal Water Temperatures

Place Temperature

Stations

Nearby Weather Stations

Station Location Temp. Windchill Dew Point Humidity Wind Precip. Elev Updated Type